PAYA/YAK METAR and TAF weather

Enter ICAO airport designator
Station Type Date Time Source
PAYA METAR 2019/12/07 14:53 UTC NOAA

PAYA 071453Z AUTO 03003KT 10SM BKN045 OVC055 M01/M02 A2979 RMK AO2 SLP089 T10111022 56005 TSNO


Station Type Date Time Source
PAYA Decoded METAR 2019/12/07 14:53 UTC NOAA

YAKUTAT AIRPORT, AK, United States (PAYA) 59-30N 139-40W 9M
Dec 07, 2019 - 09:53 AM EST / 2019.12.07 1453 UTC
Wind: from the NNE (030 degrees) at 3 MPH (3 KT):0
Visibility: 10 mile(s):0
Sky conditions: overcast
Temperature: 30.0 F (-1.1 C)
Dew Point: 28.0 F (-2.2 C)
Relative Humidity: 92%
Pressure (altimeter): 29.79 in. Hg (1008 hPa)
Pressure tendency: 0.01 inches (0.5 hPa) lower than three hours ago
ob: PAYA 071453Z AUTO 03003KT 10SM BKN045 OVC055 M01/M02 A2979 RMK AO2 SLP089 T10111022 56005 TSNO
cycle: 15

Station Type Date Time Source
PAYA TAF 2019/12/07 12:39 UTC NOAA

TAF PAYA 071136Z 0712/0812 07005KT P6SM FEW025 BKN045 OVC150
FM071900 08008KT 5SM -RASN BR BKN020 OVC040
FM072200 09008KT 3SM -RA BR OVC015
FM080100 10010KT 2SM -RA BR OVC008 WS015/14030KT
AMD LTD TO CLD VIS AND WIND

Example: see airport list